createdAt,value
2023-05-06T00:00:10.824Z,37.39
2023-05-06T00:01:10.856Z,37.39
2023-05-06T00:02:10.970Z,37.34
2023-05-06T00:03:11.047Z,37.38
2023-05-06T00:04:11.086Z,37.32
2023-05-06T00:05:11.418Z,37.30
2023-05-06T00:06:11.137Z,37.32
2023-05-06T00:07:11.166Z,37.33
2023-05-06T00:08:11.232Z,37.34
2023-05-06T00:09:11.298Z,37.25
2023-05-06T00:10:11.393Z,37.37
2023-05-06T00:11:11.428Z,37.38
2023-05-06T00:12:11.437Z,37.42
2023-05-06T00:13:11.570Z,37.37
2023-05-06T00:14:11.593Z,37.36
2023-05-06T00:15:11.954Z,37.34
2023-05-06T00:16:11.674Z,37.29
2023-05-06T00:17:11.737Z,37.30
2023-05-06T00:18:11.909Z,37.30
2023-05-06T00:19:11.831Z,37.27
2023-05-06T00:20:11.908Z,37.25
2023-05-06T00:21:11.976Z,37.28
2023-05-06T00:22:12.024Z,37.23
2023-05-06T00:23:12.070Z,37.24
2023-05-06T00:24:12.135Z,37.22
2023-05-06T00:25:12.176Z,37.18
2023-05-06T00:26:12.200Z,37.18
2023-05-06T00:27:12.286Z,37.16
2023-05-06T00:28:12.333Z,37.16
2023-05-06T00:29:12.352Z,37.19
2023-05-06T00:30:12.435Z,37.15
2023-05-06T00:31:12.477Z,37.18
2023-05-06T00:32:12.563Z,37.11
2023-05-06T00:33:12.589Z,37.12
2023-05-06T00:34:12.823Z,37.09
2023-05-06T00:35:12.701Z,37.13
2023-05-06T00:36:12.785Z,37.04
2023-05-06T00:37:12.773Z,37.11
2023-05-06T00:38:12.841Z,37.06
2023-05-06T00:39:12.892Z,37.13
2023-05-06T00:40:12.969Z,37.11
2023-05-06T00:41:12.993Z,37.10
2023-05-06T00:42:13.045Z,37.12
2023-05-06T00:43:13.108Z,37.14
2023-05-06T00:44:13.126Z,37.18
2023-05-06T00:45:13.193Z,37.11
2023-05-06T00:46:13.304Z,37.12
2023-05-06T00:47:13.313Z,37.07
2023-05-06T00:48:13.384Z,37.09
2023-05-06T00:49:13.419Z,37.16
2023-05-06T00:50:13.507Z,37.27
2023-05-06T00:51:13.519Z,37.32
2023-05-06T00:52:13.544Z,37.35
2023-05-06T00:53:13.580Z,37.45
2023-05-06T00:54:13.668Z,37.56
2023-05-06T00:55:13.704Z,37.55
2023-05-06T00:56:13.776Z,37.57
2023-05-06T00:57:13.833Z,37.56
2023-05-06T00:58:13.914Z,37.65
2023-05-06T00:59:13.965Z,37.66
2023-05-06T01:00:14.034Z,37.78
2023-05-06T01:01:14.109Z,37.78
2023-05-06T01:02:14.167Z,37.80
2023-05-06T01:03:14.314Z,37.86
2023-05-06T01:04:14.283Z,37.82
2023-05-06T01:05:14.371Z,37.79
2023-05-06T01:06:14.394Z,37.75
2023-05-06T01:07:14.466Z,37.81
2023-05-06T01:08:14.506Z,37.79
2023-05-06T01:09:14.602Z,37.82
2023-05-06T01:10:14.634Z,37.82
2023-05-06T01:11:15.917Z,37.82
2023-05-06T01:12:14.746Z,37.86
2023-05-06T01:13:15.004Z,37.86
2023-05-06T01:14:14.862Z,37.86
2023-05-06T01:15:14.932Z,37.90
2023-05-06T01:16:15.011Z,37.94
2023-05-06T01:17:15.146Z,37.91
2023-05-06T01:18:15.124Z,37.93
2023-05-06T01:19:15.160Z,37.94
2023-05-06T01:20:15.223Z,37.99
2023-05-06T01:21:15.306Z,37.94
2023-05-06T01:22:15.343Z,37.93
2023-05-06T01:23:15.341Z,37.91
2023-05-06T01:24:15.386Z,37.92
2023-05-06T01:25:15.411Z,37.94
2023-05-06T01:26:15.423Z,37.94
2023-05-06T01:27:15.494Z,37.90
2023-05-06T01:28:15.556Z,37.92
2023-05-06T01:29:15.582Z,37.90
2023-05-06T01:30:15.644Z,37.86
2023-05-06T01:31:15.752Z,37.82
2023-05-06T01:32:15.722Z,37.77
2023-05-06T01:33:15.756Z,37.73
2023-05-06T01:34:15.825Z,37.68
2023-05-06T01:35:15.918Z,37.67
2023-05-06T01:36:15.941Z,37.67
2023-05-06T01:37:16.020Z,37.62
2023-05-06T01:38:16.161Z,37.61
2023-05-06T01:39:16.164Z,37.59
2023-05-06T01:40:16.208Z,37.59
2023-05-06T01:41:16.286Z,37.61
2023-05-06T01:42:16.350Z,37.54
2023-05-06T01:43:16.491Z,37.58
2023-05-06T01:44:16.443Z,37.55
2023-05-06T01:45:16.518Z,37.53
2023-05-06T01:46:16.698Z,37.48
2023-05-06T01:47:16.606Z,37.49
2023-05-06T01:48:16.698Z,37.51
2023-05-06T01:49:16.747Z,37.51
2023-05-06T01:50:16.794Z,37.47
2023-05-06T01:51:16.883Z,37.47
2023-05-06T01:52:16.918Z,37.43
2023-05-06T01:53:16.973Z,37.45
2023-05-06T01:54:17.080Z,37.43
2023-05-06T01:55:17.095Z,37.41
2023-05-06T01:56:17.191Z,37.44
2023-05-06T01:57:17.180Z,37.44
2023-05-06T01:58:17.242Z,37.44
2023-05-06T01:59:17.299Z,37.42
2023-05-06T02:00:17.379Z,37.40
2023-05-06T02:01:17.487Z,37.40
2023-05-06T02:02:17.494Z,37.38
2023-05-06T02:03:17.677Z,37.41
2023-05-06T02:04:17.589Z,37.35
2023-05-06T02:05:17.654Z,37.36
2023-05-06T02:06:17.714Z,37.31
2023-05-06T02:07:17.759Z,37.30
2023-05-06T02:08:17.838Z,37.35
2023-05-06T02:09:17.890Z,37.31
2023-05-06T02:10:18.075Z,37.28
2023-05-06T02:11:17.956Z,37.29
2023-05-06T02:12:18.005Z,37.26
2023-05-06T02:13:18.219Z,37.30
2023-05-06T02:14:18.145Z,37.25
2023-05-06T02:15:18.180Z,37.18
2023-05-06T02:16:18.354Z,37.24
2023-05-06T02:17:18.308Z,37.22
2023-05-06T02:18:18.328Z,37.16
2023-05-06T02:19:18.465Z,37.22
2023-05-06T02:20:18.507Z,37.16
2023-05-06T02:21:18.514Z,37.15
2023-05-06T02:22:18.546Z,37.18
2023-05-06T02:23:18.620Z,37.21
2023-05-06T02:24:18.670Z,37.19
2023-05-06T02:25:18.723Z,37.16
2023-05-06T02:26:18.856Z,37.18
2023-05-06T02:27:18.815Z,37.18
2023-05-06T02:28:18.882Z,37.16
2023-05-06T02:29:19.738Z,37.15
2023-05-06T02:30:18.968Z,37.14
2023-05-06T02:31:19.101Z,37.08
2023-05-06T02:32:19.090Z,37.13
2023-05-06T02:33:19.149Z,37.09
2023-05-06T02:34:19.201Z,37.06
2023-05-06T02:35:19.240Z,37.09
2023-05-06T02:36:19.299Z,37.08
2023-05-06T02:37:19.335Z,37.06
2023-05-06T02:38:19.393Z,37.14
2023-05-06T02:39:19.481Z,37.19
2023-05-06T02:40:19.518Z,37.19
2023-05-06T02:41:19.594Z,37.19
2023-05-06T02:42:19.757Z,37.24
2023-05-06T02:43:19.730Z,37.27
2023-05-06T02:44:19.739Z,37.31
2023-05-06T02:45:19.826Z,37.30
2023-05-06T02:46:20.008Z,37.29
2023-05-06T02:47:20.042Z,37.32
2023-05-06T02:48:20.012Z,37.27
2023-05-06T02:49:20.103Z,37.25
2023-05-06T02:50:20.158Z,37.28
2023-05-06T02:51:20.220Z,37.31
2023-05-06T02:52:20.276Z,37.38
2023-05-06T02:53:20.377Z,37.38
2023-05-06T02:54:20.401Z,37.42
2023-05-06T02:55:20.476Z,37.44
2023-05-06T02:56:20.510Z,37.54
2023-05-06T02:57:20.561Z,37.55
2023-05-06T02:58:20.712Z,37.63
2023-05-06T02:59:20.664Z,37.65
2023-05-06T03:00:20.719Z,37.67
2023-05-06T03:01:20.809Z,37.71
2023-05-06T03:02:20.810Z,37.75
2023-05-06T03:03:20.817Z,37.72
2023-05-06T03:04:20.843Z,37.73
2023-05-06T03:05:20.870Z,37.72
2023-05-06T03:06:20.865Z,37.70
2023-05-06T03:07:20.896Z,37.73
2023-05-06T03:08:20.934Z,37.74
2023-05-06T03:09:20.930Z,37.72
2023-05-06T03:10:20.983Z,37.74
2023-05-06T03:11:21.040Z,37.76
2023-05-06T03:12:21.059Z,37.70
2023-05-06T03:13:21.190Z,37.71
2023-05-06T03:14:21.136Z,37.64
2023-05-06T03:15:21.214Z,37.66
2023-05-06T03:16:21.343Z,37.62
2023-05-06T03:17:21.346Z,37.64
2023-05-06T03:18:21.391Z,37.61
2023-05-06T03:19:21.433Z,37.60
2023-05-06T03:20:21.497Z,37.60
2023-05-06T03:21:21.620Z,37.60
2023-05-06T03:22:21.637Z,37.58
2023-05-06T03:23:21.668Z,37.58
2023-05-06T03:24:21.731Z,37.60
2023-05-06T03:25:21.827Z,37.56
2023-05-06T03:26:21.854Z,37.57
2023-05-06T03:27:21.930Z,37.52
2023-05-06T03:28:21.955Z,37.49
2023-05-06T03:29:22.010Z,37.51
2023-05-06T03:30:22.265Z,37.49
2023-05-06T03:31:22.168Z,37.48
2023-05-06T03:32:22.172Z,37.43
2023-05-06T03:33:22.271Z,37.40
2023-05-06T03:34:22.320Z,37.40
2023-05-06T03:35:22.365Z,37.37
2023-05-06T03:36:22.464Z,37.35
2023-05-06T03:37:22.512Z,37.32
2023-05-06T03:38:22.593Z,37.29
2023-05-06T03:39:22.636Z,37.26
2023-05-06T03:40:22.682Z,37.26
2023-05-06T03:41:22.752Z,37.22
2023-05-06T03:42:22.809Z,37.23
2023-05-06T03:43:22.892Z,37.20
2023-05-06T03:44:22.950Z,37.16
2023-05-06T03:45:23.011Z,37.16
2023-05-06T03:46:23.301Z,37.18
2023-05-06T03:47:23.215Z,37.15
2023-05-06T03:48:23.174Z,37.17
2023-05-06T03:49:23.268Z,37.16
2023-05-06T03:50:23.322Z,37.11
2023-05-06T03:51:23.378Z,37.14
2023-05-06T03:52:23.440Z,37.11
2023-05-06T03:53:23.506Z,37.10
2023-05-06T03:54:23.553Z,37.11
2023-05-06T03:55:23.647Z,37.09
2023-05-06T03:56:23.690Z,37.10
2023-05-06T03:57:23.744Z,37.09
2023-05-06T03:58:23.802Z,37.05
2023-05-06T03:59:23.877Z,37.06
2023-05-06T04:00:23.994Z,37.06
2023-05-06T04:01:24.021Z,37.04
2023-05-06T04:02:24.184Z,37.06
2023-05-06T04:03:24.189Z,37.04
2023-05-06T04:04:24.197Z,37.04
2023-05-06T04:05:24.223Z,37.01
2023-05-06T04:06:24.305Z,37.00
2023-05-06T04:07:24.355Z,37.00
2023-05-06T04:08:24.421Z,37.03
2023-05-06T04:09:24.493Z,37.04
2023-05-06T04:10:24.575Z,37.03
2023-05-06T04:11:24.642Z,37.05
2023-05-06T04:12:24.659Z,37.05
2023-05-06T04:13:24.768Z,37.07
2023-05-06T04:14:24.819Z,37.13
2023-05-06T04:15:24.848Z,37.19
2023-05-06T04:16:25.027Z,37.26
2023-05-06T04:17:24.964Z,37.32
2023-05-06T04:18:25.028Z,37.39
2023-05-06T04:19:24.886Z,37.44
2023-05-06T04:20:24.874Z,37.52
2023-05-06T04:21:24.890Z,37.53
2023-05-06T04:22:24.897Z,37.55
2023-05-06T04:23:24.870Z,37.57
2023-05-06T04:24:24.875Z,37.59
2023-05-06T04:25:24.864Z,37.58
2023-05-06T04:26:24.883Z,37.58
2023-05-06T04:27:24.896Z,37.60
2023-05-06T04:28:24.879Z,37.58
2023-05-06T04:29:24.854Z,37.62
2023-05-06T04:30:24.891Z,37.59
2023-05-06T04:31:24.874Z,37.58
2023-05-06T04:32:24.898Z,37.56
2023-05-06T04:33:24.857Z,37.53
2023-05-06T04:34:24.877Z,37.53
2023-05-06T04:35:24.896Z,37.53
2023-05-06T04:36:24.881Z,37.53
2023-05-06T04:37:24.888Z,37.53
2023-05-06T04:38:24.911Z,37.53
2023-05-06T04:39:24.897Z,37.55
2023-05-06T04:40:24.887Z,37.54
2023-05-06T04:41:24.870Z,37.58
2023-05-06T04:42:24.873Z,37.60
2023-05-06T04:43:24.911Z,37.59
2023-05-06T04:44:24.886Z,37.58
2023-05-06T04:45:24.877Z,37.54
2023-05-06T04:46:24.864Z,37.53
2023-05-06T04:47:24.870Z,37.51
2023-05-06T04:48:24.889Z,37.53
2023-05-06T04:49:24.873Z,37.52
2023-05-06T04:50:24.953Z,37.48
2023-05-06T04:51:24.839Z,37.44
2023-05-06T04:52:24.843Z,37.42
2023-05-06T04:53:24.845Z,37.41
2023-05-06T04:54:24.839Z,37.36
2023-05-06T04:55:24.822Z,37.34
2023-05-06T04:56:24.862Z,37.32
2023-05-06T04:57:24.837Z,37.30
2023-05-06T04:58:24.873Z,37.28
2023-05-06T04:59:24.887Z,37.24
2023-05-06T05:00:24.946Z,37.28
2023-05-06T05:01:25.044Z,37.26
2023-05-06T05:02:25.096Z,37.23
2023-05-06T05:03:25.265Z,37.27
2023-05-06T05:04:25.173Z,37.21
2023-05-06T05:05:25.201Z,37.22
2023-05-06T05:06:25.310Z,37.20
2023-05-06T05:07:25.325Z,37.21
2023-05-06T05:08:25.384Z,37.20
2023-05-06T05:09:25.414Z,37.18
2023-05-06T05:10:25.481Z,37.15
2023-05-06T05:11:25.540Z,37.18
2023-05-06T05:12:25.584Z,37.19
2023-05-06T05:13:25.627Z,37.15
2023-05-06T05:14:25.731Z,37.14
2023-05-06T05:15:25.778Z,37.14
2023-05-06T05:16:25.847Z,37.11
2023-05-06T05:17:25.897Z,37.14
2023-05-06T05:18:25.941Z,37.13
2023-05-06T05:19:25.975Z,37.09
2023-05-06T05:20:26.063Z,37.10
2023-05-06T05:21:26.132Z,37.14
2023-05-06T05:22:26.583Z,37.12
2023-05-06T05:23:26.194Z,37.18
2023-05-06T05:24:26.252Z,37.23
2023-05-06T05:25:26.221Z,37.27
2023-05-06T05:26:26.292Z,37.36
2023-05-06T05:27:26.268Z,37.44
2023-05-06T05:28:26.275Z,37.49
2023-05-06T05:29:26.286Z,37.49
2023-05-06T05:30:26.270Z,37.56
2023-05-06T05:31:26.307Z,37.57
2023-05-06T05:32:26.272Z,37.62
2023-05-06T05:33:26.295Z,37.60
2023-05-06T05:34:26.256Z,37.62
2023-05-06T05:35:26.293Z,37.59
2023-05-06T05:36:26.265Z,37.61
2023-05-06T05:37:26.275Z,37.62
2023-05-06T05:38:26.321Z,37.63
2023-05-06T05:39:26.286Z,37.63
2023-05-06T05:40:26.264Z,37.58
2023-05-06T05:41:26.277Z,37.55
2023-05-06T05:42:26.284Z,37.54
2023-05-06T05:43:26.298Z,37.54
2023-05-06T05:44:26.295Z,37.49
2023-05-06T05:45:26.269Z,37.48
2023-05-06T05:46:26.320Z,37.44
2023-05-06T05:47:26.263Z,37.39
2023-05-06T05:48:26.278Z,37.37
2023-05-06T05:49:26.286Z,37.33
2023-05-06T05:50:26.303Z,37.29
2023-05-06T05:51:26.295Z,37.29
2023-05-06T05:52:26.317Z,37.24
2023-05-06T05:53:26.366Z,37.20
2023-05-06T05:54:26.459Z,37.21
2023-05-06T05:55:26.441Z,37.20
2023-05-06T05:56:26.495Z,37.15
2023-05-06T05:57:26.532Z,37.10
2023-05-06T05:58:26.651Z,37.13
2023-05-06T05:59:26.702Z,37.12
2023-05-06T06:00:26.722Z,37.09
2023-05-06T06:01:26.803Z,37.05
2023-05-06T06:02:26.880Z,37.04
2023-05-06T06:03:26.968Z,37.08
2023-05-06T06:04:27.067Z,37.07
2023-05-06T06:05:27.036Z,37.04
2023-05-06T06:06:27.122Z,37.04
2023-05-06T06:07:27.147Z,36.95
2023-05-06T06:08:27.222Z,36.97
2023-05-06T06:09:27.285Z,36.98
2023-05-06T06:10:27.415Z,36.98
2023-05-06T06:11:27.406Z,36.95
2023-05-06T06:12:27.495Z,36.91
2023-05-06T06:13:29.018Z,36.94
2023-05-06T06:14:27.605Z,36.96
2023-05-06T06:15:27.661Z,36.96
2023-05-06T06:16:27.789Z,36.95
2023-05-06T06:17:27.811Z,36.98
2023-05-06T06:18:27.858Z,37.05
2023-05-06T06:19:27.892Z,37.07
2023-05-06T06:20:27.954Z,37.06
2023-05-06T06:21:28.034Z,37.08
2023-05-06T06:22:28.067Z,37.12
2023-05-06T06:23:28.141Z,37.13
2023-05-06T06:24:28.236Z,37.11
2023-05-06T06:25:28.283Z,37.12
2023-05-06T06:26:28.389Z,37.15
2023-05-06T06:27:28.438Z,37.14
2023-05-06T06:28:28.458Z,37.16
2023-05-06T06:29:28.511Z,37.12
2023-05-06T06:30:28.612Z,37.12
2023-05-06T06:31:28.683Z,37.16
2023-05-06T06:32:28.782Z,37.16
2023-05-06T06:33:28.810Z,37.15
2023-05-06T06:34:28.844Z,37.18
2023-05-06T06:35:28.871Z,37.27
2023-05-06T06:36:28.970Z,37.21
2023-05-06T06:37:29.084Z,37.26
2023-05-06T06:38:29.085Z,37.30
2023-05-06T06:39:29.165Z,37.29
2023-05-06T06:40:29.198Z,37.31
2023-05-06T06:41:29.269Z,37.29
2023-05-06T06:42:29.335Z,37.35
2023-05-06T06:43:29.415Z,37.35
2023-05-06T06:44:29.435Z,37.40
2023-05-06T06:45:29.537Z,37.39
2023-05-06T06:46:29.549Z,37.42
2023-05-06T06:47:29.603Z,37.41
2023-05-06T06:48:29.624Z,37.39
2023-05-06T06:49:29.658Z,37.41
2023-05-06T06:50:29.709Z,37.45
2023-05-06T06:51:29.709Z,37.46
2023-05-06T06:52:29.727Z,37.49
2023-05-06T06:53:29.778Z,37.45
2023-05-06T06:54:29.860Z,37.51
2023-05-06T06:55:29.936Z,37.50
2023-05-06T06:56:30.003Z,37.56
2023-05-06T06:57:30.034Z,37.57
2023-05-06T06:58:30.142Z,37.61
2023-05-06T06:59:30.106Z,37.64
2023-05-06T07:00:30.150Z,37.75
2023-05-06T07:01:30.151Z,37.74
2023-05-06T07:02:30.207Z,37.75
2023-05-06T07:03:30.184Z,37.74
2023-05-06T07:04:30.262Z,37.72
2023-05-06T07:05:30.213Z,37.69
2023-05-06T07:06:30.217Z,37.67
2023-05-06T07:07:30.225Z,37.65
2023-05-06T07:08:30.206Z,37.62
2023-05-06T07:09:30.220Z,37.62
2023-05-06T07:10:30.223Z,37.55
2023-05-06T07:11:30.214Z,37.60
2023-05-06T07:12:30.226Z,37.51
2023-05-06T07:13:30.248Z,37.52
2023-05-06T07:14:30.254Z,37.51
2023-05-06T07:15:30.282Z,37.51
2023-05-06T07:16:30.294Z,37.50
2023-05-06T07:17:30.292Z,37.49
2023-05-06T07:18:30.303Z,37.47
2023-05-06T07:19:30.305Z,37.40
2023-05-06T07:20:30.291Z,37.40
2023-05-06T07:21:30.334Z,37.37
2023-05-06T07:22:30.334Z,37.33
2023-05-06T07:23:32.053Z,37.31
2023-05-06T07:24:30.381Z,37.29
2023-05-06T07:25:30.419Z,37.30
2023-05-06T07:26:30.427Z,37.29
2023-05-06T07:27:30.466Z,37.26
2023-05-06T07:28:30.509Z,37.29
2023-05-06T07:29:30.510Z,37.29
2023-05-06T07:30:30.508Z,37.23
2023-05-06T07:31:30.602Z,37.20
2023-05-06T07:32:30.686Z,37.19
2023-05-06T07:33:30.632Z,37.13
2023-05-06T07:34:30.647Z,37.12
2023-05-06T07:35:30.683Z,37.09
2023-05-06T07:36:30.727Z,37.07
2023-05-06T07:37:30.782Z,37.04
2023-05-06T07:38:30.816Z,37.04
2023-05-06T07:39:30.900Z,37.07
2023-05-06T07:40:30.954Z,37.01
2023-05-06T07:41:31.004Z,37.05
2023-05-06T07:42:31.101Z,37.02
2023-05-06T07:43:31.087Z,37.00
2023-05-06T07:44:31.117Z,36.97
2023-05-06T07:45:31.220Z,36.98
2023-05-06T07:46:31.327Z,36.94
2023-05-06T07:47:31.455Z,36.93
2023-05-06T07:48:31.444Z,36.88
2023-05-06T07:49:31.391Z,36.84
2023-05-06T07:50:31.453Z,36.78
2023-05-06T07:51:31.531Z,36.77
2023-05-06T07:52:31.617Z,36.80
2023-05-06T07:53:31.668Z,36.72
2023-05-06T07:54:31.868Z,36.73
2023-05-06T07:55:32.742Z,36.72
2023-05-06T07:56:31.832Z,36.73
2023-05-06T07:57:31.882Z,36.69
2023-05-06T07:58:31.992Z,36.61
2023-05-06T07:59:31.971Z,36.64
2023-05-06T08:00:32.071Z,36.61
2023-05-06T08:01:32.120Z,36.55
2023-05-06T08:02:32.396Z,36.50
2023-05-06T08:03:32.297Z,36.49
2023-05-06T08:04:32.290Z,36.49
2023-05-06T08:05:32.316Z,36.46
2023-05-06T08:06:32.367Z,36.52
2023-05-06T08:07:32.393Z,36.52
2023-05-06T08:08:32.460Z,36.57
2023-05-06T08:09:32.520Z,36.52
2023-05-06T08:10:32.564Z,36.48
2023-05-06T08:11:32.644Z,36.44
2023-05-06T08:12:32.676Z,36.43
2023-05-06T08:13:32.693Z,36.38
2023-05-06T08:14:32.760Z,36.41
2023-05-06T08:15:32.813Z,36.41
2023-05-06T08:16:32.903Z,36.39
2023-05-06T08:17:32.933Z,36.36
2023-05-06T08:18:32.919Z,36.33
2023-05-06T08:19:32.977Z,36.32
2023-05-06T08:20:33.025Z,36.31
2023-05-06T08:21:33.058Z,36.33
2023-05-06T08:22:33.098Z,36.27
2023-05-06T08:23:33.117Z,36.29
2023-05-06T08:24:33.153Z,36.27
2023-05-06T08:25:33.212Z,36.25
2023-05-06T08:26:33.255Z,36.24
2023-05-06T08:27:33.288Z,36.25
2023-05-06T08:28:33.318Z,36.26
2023-05-06T08:29:33.353Z,36.34
2023-05-06T08:30:33.371Z,36.39
2023-05-06T08:31:33.485Z,36.38
2023-05-06T08:32:33.536Z,36.40
2023-05-06T08:33:33.565Z,36.41
2023-05-06T08:34:33.726Z,36.40
2023-05-06T08:35:33.653Z,36.35
2023-05-06T08:36:33.733Z,36.36
2023-05-06T08:37:33.785Z,36.36
2023-05-06T08:38:33.824Z,36.36
2023-05-06T08:39:33.901Z,36.35
2023-05-06T08:40:33.954Z,36.32
2023-05-06T08:41:34.024Z,36.38
2023-05-06T08:42:34.113Z,36.37
2023-05-06T08:43:34.157Z,36.44
2023-05-06T08:44:34.210Z,36.48
2023-05-06T08:45:34.277Z,36.57
2023-05-06T08:46:34.315Z,36.56
2023-05-06T08:47:34.403Z,36.59
2023-05-06T08:48:34.421Z,36.65
2023-05-06T08:49:34.492Z,36.67
2023-05-06T08:50:34.718Z,36.71
2023-05-06T08:51:34.624Z,36.74
2023-05-06T08:52:34.704Z,36.77
2023-05-06T08:53:34.753Z,36.74
2023-05-06T08:54:34.816Z,36.73
2023-05-06T08:55:34.925Z,36.72
2023-05-06T08:56:34.961Z,36.72
2023-05-06T08:57:34.996Z,36.73
2023-05-06T08:58:35.052Z,36.70
2023-05-06T08:59:35.137Z,36.78
2023-05-06T09:00:35.178Z,36.78
2023-05-06T09:01:35.297Z,36.80
2023-05-06T09:02:35.398Z,36.88
2023-05-06T09:03:35.413Z,36.90
2023-05-06T09:04:35.407Z,36.98
2023-05-06T09:05:35.459Z,37.02
2023-05-06T09:06:35.663Z,37.03
2023-05-06T09:07:35.527Z,37.05
2023-05-06T09:08:35.552Z,37.08
2023-05-06T09:09:35.583Z,37.13
2023-05-06T09:10:35.599Z,37.10
2023-05-06T09:11:35.636Z,37.11
2023-05-06T09:12:35.659Z,37.11
2023-05-06T09:13:35.691Z,37.07
2023-05-06T09:14:35.720Z,37.06
2023-05-06T09:15:35.778Z,37.07
2023-05-06T09:16:35.870Z,37.10
2023-05-06T09:17:35.879Z,37.09
2023-05-06T09:18:35.883Z,37.12
2023-05-06T09:19:35.930Z,37.13
2023-05-06T09:20:35.981Z,37.20
2023-05-06T09:21:36.034Z,37.22
2023-05-06T09:22:36.132Z,37.30
2023-05-06T09:23:36.111Z,37.34
2023-05-06T09:24:36.147Z,37.42
2023-05-06T09:25:36.184Z,37.47
2023-05-06T09:26:36.215Z,37.47
2023-05-06T09:27:36.200Z,37.55
2023-05-06T09:28:36.210Z,37.62
2023-05-06T09:29:36.198Z,37.64
2023-05-06T09:30:36.192Z,37.72
2023-05-06T09:31:36.276Z,37.78
2023-05-06T09:32:38.309Z,37.72
2023-05-06T09:33:36.233Z,37.77
2023-05-06T09:34:36.204Z,37.79
2023-05-06T09:35:36.186Z,37.84
2023-05-06T09:36:36.198Z,37.89
2023-05-06T09:37:36.209Z,37.94
2023-05-06T09:38:36.161Z,37.92
2023-05-06T09:39:36.165Z,37.93
2023-05-06T09:40:36.161Z,38.04
2023-05-06T09:41:36.157Z,38.18
2023-05-06T09:42:36.141Z,38.25
2023-05-06T09:43:36.144Z,38.32
2023-05-06T09:44:36.140Z,38.34
2023-05-06T09:45:36.130Z,38.43
2023-05-06T09:46:36.172Z,38.47
2023-05-06T09:47:36.155Z,38.58
2023-05-06T09:48:36.130Z,38.57
2023-05-06T09:49:36.083Z,38.55
2023-05-06T09:50:36.116Z,38.58
2023-05-06T09:51:36.098Z,38.52
2023-05-06T09:52:36.102Z,38.59
2023-05-06T09:53:36.076Z,38.61
2023-05-06T09:54:36.133Z,38.57
2023-05-06T09:55:36.034Z,38.58
2023-05-06T09:56:36.061Z,38.59
2023-05-06T09:57:36.077Z,38.59
2023-05-06T09:58:36.049Z,38.56
2023-05-06T09:59:36.048Z,38.48
2023-05-06T10:00:36.047Z,38.43
2023-05-06T10:01:37.516Z,38.46
2023-05-06T10:02:36.202Z,38.56
2023-05-06T10:03:36.088Z,38.44
2023-05-06T10:04:36.243Z,38.44
2023-05-06T10:05:36.002Z,38.42
2023-05-06T10:06:35.981Z,38.39
2023-05-06T10:07:35.958Z,38.39
2023-05-06T10:08:35.980Z,38.32
2023-05-06T10:09:35.960Z,38.35
2023-05-06T10:10:36.164Z,38.27
2023-05-06T10:11:35.949Z,38.20
2023-05-06T10:12:35.992Z,38.16
2023-05-06T10:13:35.954Z,38.08
2023-05-06T10:14:36.012Z,38.01
2023-05-06T10:15:36.063Z,37.99
2023-05-06T10:16:36.235Z,37.97
2023-05-06T10:17:36.212Z,37.91
2023-05-06T10:18:36.254Z,37.84
2023-05-06T10:19:36.303Z,37.81
2023-05-06T10:20:36.335Z,37.76
2023-05-06T10:21:36.389Z,37.72
2023-05-06T10:22:36.452Z,37.62
2023-05-06T10:23:36.508Z,37.68
2023-05-06T10:24:36.565Z,37.60
2023-05-06T10:25:36.629Z,37.60
2023-05-06T10:26:36.754Z,37.52
2023-05-06T10:27:36.704Z,37.47
2023-05-06T10:28:36.744Z,37.45
2023-05-06T10:29:36.814Z,37.41
2023-05-06T10:30:36.851Z,37.43
2023-05-06T10:31:36.925Z,37.33
2023-05-06T10:32:37.082Z,37.36
2023-05-06T10:33:36.996Z,37.33
2023-05-06T10:34:37.036Z,37.32
2023-05-06T10:35:37.092Z,37.29
2023-05-06T10:36:37.111Z,37.27
2023-05-06T10:37:37.154Z,37.31
2023-05-06T10:38:37.212Z,37.31
2023-05-06T10:39:37.248Z,37.31
2023-05-06T10:40:37.308Z,37.19
2023-05-06T10:41:37.409Z,37.20
2023-05-06T10:42:37.463Z,37.12
2023-05-06T10:43:37.406Z,37.13
2023-05-06T10:44:37.432Z,37.04
2023-05-06T10:45:37.494Z,37.07
2023-05-06T10:46:37.526Z,37.10
2023-05-06T10:47:37.600Z,37.16
2023-05-06T10:48:37.587Z,37.14
2023-05-06T10:49:37.613Z,37.11
2023-05-06T10:50:37.659Z,36.99
2023-05-06T10:51:37.699Z,37.01
2023-05-06T10:52:37.753Z,36.99
2023-05-06T10:53:37.783Z,36.96
2023-05-06T10:54:37.823Z,37.00
2023-05-06T10:55:37.889Z,36.87
2023-05-06T10:56:37.887Z,36.88
2023-05-06T10:57:37.949Z,36.90
2023-05-06T10:58:37.950Z,36.84
2023-05-06T10:59:38.007Z,36.86
2023-05-06T11:00:38.027Z,36.85
2023-05-06T11:01:38.137Z,36.87
2023-05-06T11:02:38.197Z,36.78
2023-05-06T11:03:38.147Z,36.79
2023-05-06T11:04:38.175Z,36.81
2023-05-06T11:05:38.166Z,36.71
2023-05-06T11:06:38.240Z,36.81
2023-05-06T11:07:38.290Z,36.78
2023-05-06T11:08:38.270Z,36.69
2023-05-06T11:09:38.317Z,36.81
2023-05-06T11:10:38.354Z,36.76
2023-05-06T11:11:38.369Z,36.78
2023-05-06T11:12:38.456Z,36.77
2023-05-06T11:13:38.432Z,36.75
2023-05-06T11:14:38.612Z,36.64
2023-05-06T11:15:38.488Z,36.64
2023-05-06T11:16:38.916Z,36.61
2023-05-06T11:17:38.582Z,36.64
2023-05-06T11:18:38.591Z,36.65
2023-05-06T11:19:38.574Z,36.58
2023-05-06T11:20:38.598Z,36.58
2023-05-06T11:21:38.620Z,36.61
2023-05-06T11:22:38.622Z,36.59
2023-05-06T11:23:38.662Z,36.59
2023-05-06T11:24:38.719Z,36.56
2023-05-06T11:25:38.743Z,36.63
2023-05-06T11:26:38.774Z,36.59
2023-05-06T11:27:38.782Z,36.61
2023-05-06T11:28:38.893Z,36.54
2023-05-06T11:29:38.816Z,36.58
2023-05-06T11:30:38.929Z,36.55
2023-05-06T11:31:38.903Z,36.56
2023-05-06T11:32:38.968Z,36.48
2023-05-06T11:33:38.976Z,36.56
2023-05-06T11:34:38.955Z,36.59
2023-05-06T11:35:39.021Z,36.61
2023-05-06T11:36:39.123Z,36.60
2023-05-06T11:37:39.141Z,36.59
2023-05-06T11:38:39.126Z,36.59
2023-05-06T11:39:40.778Z,36.62
2023-05-06T11:40:39.203Z,36.58
2023-05-06T11:41:39.220Z,36.56
2023-05-06T11:42:39.269Z,36.53
2023-05-06T11:43:39.294Z,36.50
2023-05-06T11:44:39.421Z,36.46
2023-05-06T11:45:39.382Z,36.44
2023-05-06T11:46:39.563Z,36.43
2023-05-06T11:47:39.430Z,36.33
2023-05-06T11:48:39.472Z,36.35
2023-05-06T11:49:39.493Z,36.33
2023-05-06T11:50:39.511Z,36.31
2023-05-06T11:51:39.552Z,36.30
2023-05-06T11:52:39.586Z,36.26
2023-05-06T11:53:39.576Z,36.23
2023-05-06T11:54:39.662Z,36.15
2023-05-06T11:55:39.669Z,36.17
2023-05-06T11:56:39.696Z,36.18
2023-05-06T11:57:39.693Z,36.18
2023-05-06T11:58:39.720Z,36.10
2023-05-06T11:59:39.771Z,36.11
2023-05-06T12:00:39.786Z,36.05
2023-05-06T12:01:39.771Z,36.04
2023-05-06T12:02:40.085Z,36.00
2023-05-06T12:03:39.947Z,36.02
2023-05-06T12:04:40.008Z,36.00
2023-05-06T12:05:39.921Z,36.01
2023-05-06T12:06:39.886Z,35.99
2023-05-06T12:07:39.948Z,35.96
2023-05-06T12:08:39.935Z,35.93
2023-05-06T12:09:39.992Z,35.98
2023-05-06T12:10:39.995Z,35.93
2023-05-06T12:11:40.001Z,35.93
2023-05-06T12:12:40.088Z,35.94
2023-05-06T12:13:40.050Z,35.98
2023-05-06T12:14:40.081Z,35.95
2023-05-06T12:15:40.104Z,35.95
2023-05-06T12:16:40.250Z,35.96
2023-05-06T12:17:40.190Z,35.96
2023-05-06T12:18:40.217Z,35.94
2023-05-06T12:19:40.194Z,35.89
2023-05-06T12:20:40.189Z,35.92
2023-05-06T12:21:40.240Z,35.89
2023-05-06T12:22:40.257Z,35.88
2023-05-06T12:23:40.328Z,35.89
2023-05-06T12:24:40.300Z,35.85
2023-05-06T12:25:40.307Z,35.84
2023-05-06T12:26:40.307Z,35.84
2023-05-06T12:27:40.384Z,35.84
2023-05-06T12:28:40.377Z,35.79
2023-05-06T12:29:40.404Z,35.73
2023-05-06T12:30:40.472Z,35.71
2023-05-06T12:31:40.495Z,35.66
2023-05-06T12:32:40.470Z,35.65
2023-05-06T12:33:40.452Z,35.61
2023-05-06T12:34:40.553Z,35.62
2023-05-06T12:35:40.545Z,35.56
2023-05-06T12:36:40.586Z,35.51
2023-05-06T12:37:40.579Z,35.52
2023-05-06T12:38:40.569Z,35.52
2023-05-06T12:39:40.629Z,35.54
2023-05-06T12:40:40.629Z,35.52
2023-05-06T12:41:40.660Z,35.53
2023-05-06T12:42:40.692Z,35.49
2023-05-06T12:43:40.704Z,35.49
2023-05-06T12:44:40.725Z,35.48
2023-05-06T12:45:40.783Z,35.45
2023-05-06T12:46:40.783Z,35.40
2023-05-06T12:47:40.812Z,35.38
2023-05-06T12:48:40.816Z,35.32
2023-05-06T12:49:40.817Z,35.35
2023-05-06T12:50:40.839Z,35.33
2023-05-06T12:51:40.850Z,35.30
2023-05-06T12:52:40.864Z,35.31